Time;durP1;ratioP1;P1;durP2;ratioP2;P2;SDS_P1;SDS_P2;PMS_P1;PMS_P2;Temp;Humidity;BMP_temperature;BMP_pressure;BME280_temperature;BME280_humidity;BME280_pressure;Samples;Min_cycle;Max_cycle;Signal;HPM_P1;HPM_P2
2021/08/19 00:00:42;;;;;;;20.23;13.82;;;18.50;98.30;;;;;;5040215;28;20385;-84
2021/08/19 00:03:08;;;;;;;17.02;14.93;;;18.50;98.30;;;;;;5028163;28;20057;-84
2021/08/19 00:05:34;;;;;;;18.95;15.05;;;18.50;98.30;;;;;;5027893;28;20025;-84
2021/08/19 00:07:59;;;;;;;18.70;14.02;;;18.40;98.50;;;;;;5038613;28;20048;-84
2021/08/19 00:10:25;;;;;;;16.30;14.13;;;18.40;98.50;;;;;;5043271;28;20034;-84
2021/08/19 00:12:51;;;;;;;15.75;13.43;;;18.40;98.50;;;;;;5076610;28;20017;-84
2021/08/19 00:15:18;;;;;;;18.75;14.68;;;18.40;98.60;;;;;;5038802;28;20474;-84
2021/08/19 00:17:43;;;;;;;21.02;13.88;;;18.50;98.60;;;;;;5034732;28;20060;-84
2021/08/19 00:20:10;;;;;;;18.75;15.48;;;18.40;98.60;;;;;;5040434;28;20143;-82
2021/08/19 00:22:36;;;;;;;17.08;13.95;;;18.40;98.70;;;;;;5074014;28;20492;-82
2021/08/19 00:25:03;;;;;;;17.83;13.57;;;18.40;98.70;;;;;;5059949;28;20150;-82
2021/08/19 00:27:29;;;;;;;17.25;13.98;;;18.40;98.80;;;;;;5030703;28;20024;-81
2021/08/19 00:29:55;;;;;;;17.98;14.23;;;18.40;98.70;;;;;;5053790;28;20041;-84
2021/08/19 00:32:20;;;;;;;20.75;15.20;;;18.40;98.70;;;;;;5030868;28;20091;-84
2021/08/19 00:34:46;;;;;;;17.77;13.88;;;18.40;98.80;;;;;;5041127;28;20128;-84
2021/08/19 00:37:12;;;;;;;17.30;13.82;;;18.40;98.80;;;;;;5012019;28;20174;-84
2021/08/19 00:39:42;;;;;;;19.10;14.35;;;18.40;98.70;;;;;;5039773;28;20362;-83
2021/08/19 00:42:08;;;;;;;18.35;14.00;;;18.40;98.80;;;;;;5042465;28;20031;-82
2021/08/19 00:44:34;;;;;;;17.05;13.57;;;18.40;98.80;;;;;;5073908;28;20483;-82
2021/08/19 00:47:00;;;;;;;17.33;13.73;;;18.40;98.70;;;;;;5023566;28;20112;-82
2021/08/19 00:49:26;;;;;;;17.15;14.38;;;18.40;98.80;;;;;;5038792;28;20028;-82
2021/08/19 00:51:53;;;;;;;19.05;13.75;;;18.30;98.70;;;;;;5024667;28;20114;-82
2021/08/19 00:54:25;;;;;;;23.70;14.80;;;18.30;98.80;;;;;;5067073;28;20496;-82
2021/08/19 00:56:58;;;;;;;17.75;13.30;;;18.30;98.90;;;;;;5073452;28;20084;-82
2021/08/19 00:59:28;;;;;;;18.92;15.05;;;18.30;98.70;;;;;;5058898;28;20038;-82
2021/08/19 01:01:58;;;;;;;20.23;14.13;;;18.20;98.90;;;;;;5062575;28;20500;-82
2021/08/19 01:04:24;;;;;;;16.42;13.90;;;18.20;98.90;;;;;;5075317;28;20273;-83
2021/08/19 01:06:50;;;;;;;18.73;14.50;;;18.20;99.20;;;;;;5055200;28;20033;-83
2021/08/19 01:09:17;;;;;;;20.48;15.10;;;18.20;99.00;;;;;;5058935;28;20381;-82
2021/08/19 01:11:44;;;;;;;18.35;14.38;;;18.20;99.00;;;;;;5075153;28;20020;-82
2021/08/19 01:14:16;;;;;;;17.55;14.05;;;18.20;99.00;;;;;;5058606;28;20031;-82
2021/08/19 01:16:44;;;;;;;18.67;14.65;;;18.20;99.00;;;;;;5075348;28;20034;-83
2021/08/19 01:19:18;;;;;;;19.30;14.75;;;18.20;99.10;;;;;;5075433;28;20081;-82
2021/08/19 01:21:45;;;;;;;19.13;14.15;;;18.20;99.10;;;;;;5075214;28;20031;-83
2021/08/19 01:24:11;;;;;;;18.48;14.23;;;18.20;99.10;;;;;;5074902;28;20027;-82
2021/08/19 01:26:38;;;;;;;19.35;15.15;;;18.20;99.20;;;;;;5074765;28;20077;-83
2021/08/19 01:29:04;;;;;;;17.33;14.93;;;18.20;99.20;;;;;;5091688;28;20038;-82
2021/08/19 01:31:31;;;;;;;18.95;15.13;;;18.30;99.30;;;;;;5074716;28;20016;-82
2021/08/19 01:33:57;;;;;;;18.83;15.05;;;18.30;99.30;;;;;;5074697;28;20028;-82
2021/08/19 01:36:23;;;;;;;19.15;14.45;;;18.20;99.30;;;;;;5057094;28;20477;-83
2021/08/19 01:38:50;;;;;;;19.60;15.15;;;18.30;99.30;;;;;;5041555;28;20051;-81
2021/08/19 01:41:15;;;;;;;21.98;15.20;;;18.30;99.40;;;;;;5074880;28;20066;-82
2021/08/19 01:43:42;;;;;;;22.02;16.13;;;18.30;99.50;;;;;;5055546;28;20024;-84
2021/08/19 01:46:10;;;;;;;20.33;15.18;;;18.30;99.40;;;;;;5075048;28;20058;-82
2021/08/19 01:48:36;;;;;;;21.40;15.07;;;18.30;99.50;;;;;;5074552;28;20468;-83
2021/08/19 01:51:02;;;;;;;19.25;14.73;;;18.20;99.40;;;;;;5057881;28;20032;-82
2021/08/19 01:53:28;;;;;;;19.90;15.65;;;18.30;99.40;;;;;;5040940;28;20370;-83
2021/08/19 01:56:00;;;;;;;19.13;15.15;;;18.30;99.50;;;;;;5046896;28;20072;-82
2021/08/19 01:58:26;;;;;;;24.55;15.70;;;18.30;99.50;;;;;;5060302;28;20043;-83
2021/08/19 02:00:53;;;;;;;18.73;14.50;;;18.30;99.50;;;;;;5058425;28;20028;-82
2021/08/19 02:03:19;;;;;;;20.23;14.90;;;18.30;99.60;;;;;;5060546;28;20090;-83
2021/08/19 02:05:51;;;;;;;19.65;14.70;;;18.30;99.60;;;;;;5056794;28;20028;-82
2021/08/19 02:08:18;;;;;;;20.70;15.70;;;18.40;99.60;;;;;;5061715;28;20319;-82
2021/08/19 02:14:09;;;;;;;22.90;17.02;;;18.40;99.60;;;;;;5085571;28;20081;-82
2021/08/19 02:16:35;;;;;;;23.55;17.63;;;18.40;99.70;;;;;;5060072;28;20035;-82
2021/08/19 02:19:01;;;;;;;25.15;17.70;;;18.30;99.70;;;;;;5060721;28;20032;-82
2021/08/19 02:21:27;;;;;;;23.35;18.35;;;18.40;99.90;;;;;;5074252;28;20020;-82
2021/08/19 02:23:52;;;;;;;27.15;19.00;;;18.40;99.80;;;;;;5063504;28;20417;-83
2021/08/19 02:26:18;;;;;;;28.00;19.38;;;18.40;99.90;;;;;;5054403;28;20365;-82
2021/08/19 02:28:44;;;;;;;26.13;19.55;;;18.40;99.90;;;;;;5081587;28;20369;-83
2021/08/19 02:31:09;;;;;;;27.15;20.52;;;18.40;99.90;;;;;;5054643;28;20028;-82
2021/08/19 02:33:35;;;;;;;27.58;20.50;;;18.40;99.90;;;;;;5054233;28;20105;-82
2021/08/19 02:36:01;;;;;;;24.80;19.38;;;18.30;99.90;;;;;;5037660;28;20360;-83
2021/08/19 02:38:26;;;;;;;25.88;20.55;;;18.40;99.90;;;;;;5057553;28;20127;-82
2021/08/19 02:40:52;;;;;;;23.17;18.50;;;18.40;99.90;;;;;;5051145;28;20079;-82
2021/08/19 02:43:18;;;;;;;24.83;20.13;;;18.30;99.90;;;;;;5051471;28;20029;-82
2021/08/19 02:45:43;;;;;;;29.02;21.60;;;18.40;99.90;;;;;;5061877;28;20074;-82
2021/08/19 02:48:09;;;;;;;31.20;22.38;;;18.40;99.90;;;;;;5073316;28;20384;-82
2021/08/19 02:50:35;;;;;;;30.02;21.55;;;18.40;99.90;;;;;;5056992;28;20032;-82
2021/08/19 02:53:00;;;;;;;27.55;20.50;;;18.40;99.90;;;;;;5053920;28;20493;-82
2021/08/19 02:55:26;;;;;;;34.22;22.20;;;18.40;99.90;;;;;;5057197;28;20073;-82
2021/08/19 02:57:52;;;;;;;32.88;23.00;;;18.40;99.90;;;;;;5054059;28;20040;-82
2021/08/19 03:00:18;;;;;;;29.48;22.52;;;18.40;99.90;;;;;;5084267;28;20036;-82
2021/08/19 03:02:44;;;;;;;36.83;25.63;;;18.30;99.90;;;;;;5062259;28;20095;-82
2021/08/19 03:05:10;;;;;;;29.75;23.20;;;18.30;99.90;;;;;;5073778;28;20064;-82
2021/08/19 03:07:36;;;;;;;32.20;23.35;;;18.30;99.90;;;;;;5091968;28;20024;-82
2021/08/19 03:10:03;;;;;;;29.58;22.25;;;18.30;99.90;;;;;;5053731;28;20043;-82
2021/08/19 03:12:29;;;;;;;31.45;22.45;;;18.30;99.90;;;;;;5055623;28;20020;-82
2021/08/19 03:14:54;;;;;;;32.50;22.23;;;18.30;99.90;;;;;;5054325;28;20124;-82
2021/08/19 03:17:20;;;;;;;31.90;22.80;;;18.30;99.90;;;;;;5051133;28;20052;-82
2021/08/19 03:19:48;;;;;;;31.13;23.35;;;18.30;99.90;;;;;;5056416;28;20062;-82
2021/08/19 03:22:16;;;;;;;31.13;22.08;;;18.30;99.90;;;;;;5072468;28;20032;-83
2021/08/19 03:24:42;;;;;;;29.23;22.08;;;18.30;99.90;;;;;;5047333;28;20086;-85
2021/08/19 03:27:11;;;;;;;33.33;22.92;;;18.20;99.90;;;;;;5078999;28;20029;-85
2021/08/19 03:29:37;;;;;;;28.80;20.92;;;18.20;99.90;;;;;;5045260;28;20036;-84
2021/08/19 03:32:04;;;;;;;25.25;19.13;;;18.30;99.90;;;;;;5053766;28;20161;-84
2021/08/19 03:34:31;;;;;;;28.65;19.60;;;18.20;99.90;;;;;;5064175;28;20525;-84
2021/08/19 03:37:33;;;;;;;22.10;17.92;;;18.20;99.90;;;;;;5045526;28;20036;-84
2021/08/19 03:40:00;;;;;;;25.30;18.15;;;18.20;99.90;;;;;;5078202;28;20126;-84
2021/08/19 03:42:25;;;;;;;22.48;16.17;;;18.20;99.90;;;;;;5078953;28;20059;-84
2021/08/19 03:44:51;;;;;;;20.40;15.88;;;18.20;99.90;;;;;;5053798;28;20058;-84
2021/08/19 03:47:17;;;;;;;22.35;15.02;;;18.10;99.90;;;;;;5070016;28;20052;-85
2021/08/19 03:49:43;;;;;;;22.13;15.32;;;18.10;99.90;;;;;;5059453;28;20028;-85
2021/08/19 03:52:08;;;;;;;22.02;14.73;;;18.10;99.90;;;;;;5101277;28;20040;-85
2021/08/19 03:54:34;;;;;;;17.67;12.88;;;18.00;99.90;;;;;;5048831;28;20023;-84
2021/08/19 03:57:00;;;;;;;18.13;12.57;;;18.00;99.90;;;;;;5046955;28;20127;-84
2021/08/19 03:59:26;;;;;;;14.77;10.95;;;18.00;99.90;;;;;;5060604;28;20446;-85
2021/08/19 04:01:51;;;;;;;16.33;11.00;;;18.00;99.90;;;;;;5059541;28;20039;-85
2021/08/19 04:04:17;;;;;;;15.25;11.25;;;17.90;99.90;;;;;;5073581;28;20120;-85
2021/08/19 04:06:43;;;;;;;13.70;10.27;;;17.90;99.90;;;;;;5069947;28;20433;-85
2021/08/19 04:09:08;;;;;;;13.38;9.60;;;17.90;99.90;;;;;;5064048;28;20438;-85
2021/08/19 04:11:34;;;;;;;12.45;9.50;;;17.90;99.90;;;;;;5095695;28;20054;-85
2021/08/19 04:14:00;;;;;;;12.63;8.70;;;17.90;99.90;;;;;;5055803;28;20389;-85
2021/08/19 04:16:25;;;;;;;11.20;9.00;;;17.90;99.90;;;;;;5050155;28;20041;-83
2021/08/19 04:18:51;;;;;;;13.50;9.82;;;17.90;99.90;;;;;;5056672;28;20024;-82
2021/08/19 04:21:17;;;;;;;13.23;9.20;;;17.90;99.90;;;;;;5073146;28;20039;-82
2021/08/19 04:23:44;;;;;;;12.93;8.82;;;17.90;99.90;;;;;;5074545;28;20098;-82
2021/08/19 04:26:11;;;;;;;13.75;9.10;;;17.90;99.90;;;;;;5056341;28;20036;-82
2021/08/19 04:28:37;;;;;;;11.57;9.07;;;17.90;99.90;;;;;;5074060;28;20032;-82
2021/08/19 04:31:03;;;;;;;12.20;9.00;;;18.00;99.90;;;;;;5075374;28;20032;-82
2021/08/19 04:33:29;;;;;;;12.20;8.63;;;17.90;99.90;;;;;;5076146;28;20016;-83
2021/08/19 04:35:55;;;;;;;14.70;10.00;;;18.00;99.90;;;;;;5075851;28;20067;-82
2021/08/19 04:38:21;;;;;;;12.93;9.30;;;18.00;99.90;;;;;;5059171;28;20039;-82
2021/08/19 04:40:47;;;;;;;12.23;8.80;;;18.00;99.90;;;;;;5072195;28;20028;-83
2021/08/19 04:43:13;;;;;;;11.45;8.40;;;18.00;99.90;;;;;;5092418;28;20070;-83
2021/08/19 04:45:39;;;;;;;11.43;8.57;;;18.00;99.90;;;;;;5055921;28;20032;-82
2021/08/19 04:48:05;;;;;;;10.98;8.10;;;18.00;99.90;;;;;;5075790;28;20028;-83
2021/08/19 04:50:31;;;;;;;12.48;9.55;;;18.00;99.90;;;;;;5063440;23;20034;-84
2021/08/19 04:52:56;;;;;;;16.92;11.10;;;18.00;99.90;;;;;;5039327;28;20055;-84
2021/08/19 04:55:22;;;;;;;14.13;10.75;;;18.00;99.90;;;;;;5039540;28;20124;-84
2021/08/19 04:57:48;;;;;;;14.48;10.75;;;18.00;99.90;;;;;;5020807;28;20070;-84
2021/08/19 05:00:14;;;;;;;14.95;11.38;;;18.00;99.90;;;;;;5056024;28;20390;-85
2021/08/19 05:02:39;;;;;;;16.30;11.88;;;18.00;99.90;;;;;;5053419;28;20021;-84
2021/08/19 05:05:18;;;;;;;16.30;12.32;;;18.00;99.90;;;;;;5057097;28;20040;-84
2021/08/19 05:07:43;;;;;;;20.85;14.13;;;18.00;99.90;;;;;;5022309;28;20100;-84
2021/08/19 05:10:09;;;;;;;18.73;13.98;;;18.00;99.90;;;;;;5022811;28;20167;-84
2021/08/19 05:12:35;;;;;;;18.58;14.00;;;18.00;99.90;;;;;;5056521;28;20021;-85
2021/08/19 05:15:00;;;;;;;21.98;15.80;;;18.00;99.90;;;;;;5040022;28;20504;-85
2021/08/19 05:17:26;;;;;;;19.23;15.60;;;18.00;99.90;;;;;;5039731;28;20122;-85
2021/08/19 05:19:52;;;;;;;23.65;16.65;;;18.00;99.90;;;;;;5020944;28;20178;-84
2021/08/19 05:22:18;;;;;;;21.45;16.40;;;18.00;99.90;;;;;;5047338;28;20056;-85
2021/08/19 05:24:43;;;;;;;19.35;15.75;;;18.10;99.90;;;;;;5026207;28;20035;-85
2021/08/19 05:27:09;;;;;;;23.65;17.23;;;18.00;99.90;;;;;;5031213;28;20035;-84
2021/08/19 05:29:35;;;;;;;23.05;17.42;;;18.10;99.90;;;;;;5034588;28;20020;-85
2021/08/19 05:32:00;;;;;;;25.38;18.48;;;18.10;99.90;;;;;;5036173;28;20025;-85
2021/08/19 05:34:26;;;;;;;25.38;19.48;;;18.10;99.90;;;;;;5048792;28;20035;-85
2021/08/19 05:36:52;;;;;;;25.48;19.10;;;18.10;99.90;;;;;;5057023;28;20040;-85
2021/08/19 05:39:17;;;;;;;24.08;18.95;;;18.10;99.90;;;;;;5039577;28;20425;-85
2021/08/19 05:41:43;;;;;;;25.55;19.95;;;18.10;99.90;;;;;;5042081;28;20021;-85
2021/08/19 05:44:09;;;;;;;27.48;20.02;;;18.10;99.90;;;;;;5048503;28;20510;-86
2021/08/19 05:46:37;;;;;;;30.02;20.45;;;18.10;99.90;;;;;;5035019;28;20028;-86
2021/08/19 05:49:03;;;;;;;28.52;19.48;;;18.10;99.90;;;;;;5040356;28;20037;-85
2021/08/19 05:51:29;;;;;;;25.45;18.65;;;18.10;99.90;;;;;;5023041;28;20044;-85
2021/08/19 05:53:54;;;;;;;28.38;19.63;;;18.10;99.90;;;;;;5051059;28;20052;-83
2021/08/19 05:56:20;;;;;;;24.52;18.40;;;18.10;99.90;;;;;;5037790;28;20036;-83
2021/08/19 05:58:46;;;;;;;26.05;18.58;;;18.10;99.90;;;;;;5038473;28;20052;-83
2021/08/19 06:01:11;;;;;;;31.25;20.75;;;18.10;99.90;;;;;;5051961;28;20060;-83
2021/08/19 06:03:37;;;;;;;30.83;20.35;;;18.10;99.90;;;;;;5037124;28;20028;-84
2021/08/19 06:06:03;;;;;;;27.80;18.75;;;18.10;99.90;;;;;;5031907;28;20036;-84
2021/08/19 06:08:28;;;;;;;26.33;18.75;;;18.10;99.90;;;;;;5051939;28;20024;-83
2021/08/19 06:10:54;;;;;;;24.50;17.67;;;18.10;99.90;;;;;;5036493;28;20493;-83
2021/08/19 06:13:20;;;;;;;27.77;19.02;;;18.10;99.90;;;;;;5037347;28;20021;-84
2021/08/19 06:15:45;;;;;;;27.80;18.48;;;18.10;99.90;;;;;;5037525;28;20136;-83
2021/08/19 06:18:14;;;;;;;26.92;18.05;;;18.10;99.90;;;;;;5038134;28;20054;-84
2021/08/19 06:20:40;;;;;;;25.48;19.10;;;18.10;99.90;;;;;;5038152;28;20481;-85
2021/08/19 06:23:12;;;;;;;24.50;17.83;;;18.10;99.90;;;;;;5040820;28;20035;-85
2021/08/19 06:25:39;;;;;;;24.67;18.92;;;18.10;99.90;;;;;;5049838;28;20051;-83
2021/08/19 06:28:06;;;;;;;29.10;20.30;;;18.10;99.90;;;;;;5050673;28;20103;-83
2021/08/19 06:30:32;;;;;;;27.35;18.75;;;18.10;99.90;;;;;;5052231;28;20028;-83
2021/08/19 06:32:59;;;;;;;26.23;19.02;;;18.10;99.90;;;;;;5053085;28;20036;-83
2021/08/19 06:35:25;;;;;;;27.95;19.70;;;18.10;99.90;;;;;;5048250;28;20025;-83
2021/08/19 06:37:51;;;;;;;29.50;19.45;;;18.10;99.90;;;;;;5038291;28;20060;-83
2021/08/19 06:40:17;;;;;;;29.13;19.42;;;18.10;99.90;;;;;;5039739;28;20035;-82
2021/08/19 06:42:42;;;;;;;27.35;19.27;;;18.10;99.90;;;;;;5018272;28;20075;-83
2021/08/19 06:45:08;;;;;;;25.60;19.45;;;18.10;99.90;;;;;;5056460;28;20024;-82
2021/08/19 06:47:37;;;;;;;30.10;20.77;;;18.10;99.90;;;;;;5022760;28;20043;-85
2021/08/19 06:50:07;;;;;;;27.58;19.85;;;18.10;99.90;;;;;;5074128;28;20489;-85
2021/08/19 06:52:38;;;;;;;25.88;18.70;;;18.10;99.90;;;;;;5025743;28;20503;-85
2021/08/19 06:55:04;;;;;;;29.67;20.70;;;18.10;99.90;;;;;;5045665;28;20043;-85
2021/08/19 06:57:30;;;;;;;25.20;19.50;;;18.10;99.90;;;;;;5025629;28;20106;-85
2021/08/19 06:59:55;;;;;;;30.80;20.77;;;18.10;99.90;;;;;;5062457;28;20032;-85
2021/08/19 07:02:21;;;;;;;30.73;21.90;;;18.10;99.90;;;;;;5049464;28;20035;-85
2021/08/19 07:04:46;;;;;;;30.95;20.50;;;18.10;99.90;;;;;;5053210;28;20033;-85
2021/08/19 07:07:12;;;;;;;27.48;19.17;;;18.10;99.90;;;;;;5028382;28;20482;-85
2021/08/19 07:09:38;;;;;;;28.80;20.33;;;18.10;99.90;;;;;;5080750;28;20100;-86
2021/08/19 07:12:05;;;;;;;28.63;19.95;;;18.10;99.90;;;;;;5060480;28;20362;-84
2021/08/19 07:14:49;;;;;;;23.52;17.90;;;18.10;99.90;;;;;;5028965;28;20033;-85
2021/08/19 07:17:15;;;;;;;32.03;20.80;;;18.10;99.90;;;;;;5077436;28;20107;-84
2021/08/19 07:19:43;;;;;;;23.77;19.52;;;18.10;99.90;;;;;;5038532;28;20075;-84
2021/08/19 07:22:09;;;;;;;34.83;21.08;;;18.10;99.90;;;;;;5067634;28;20032;-84
2021/08/19 07:24:38;;;;;;;24.42;19.60;;;18.10;99.90;;;;;;5041034;28;20381;-83
2021/08/19 07:27:04;;;;;;;25.67;18.75;;;18.10;99.90;;;;;;5041047;28;20485;-84
2021/08/19 07:29:30;;;;;;;28.40;18.30;;;18.10;99.90;;;;;;5043264;28;20028;-84
2021/08/19 07:31:59;;;;;;;22.55;17.65;;;18.10;99.90;;;;;;5074587;28;20430;-84
2021/08/19 07:34:28;;;;;;;28.45;19.75;;;18.10;99.90;;;;;;5057752;28;20457;-83
2021/08/19 07:36:55;;;;;;;37.40;19.35;;;18.10;99.90;;;;;;5041001;28;20033;-83
2021/08/19 07:39:21;;;;;;;23.65;18.52;;;18.10;99.90;;;;;;5051164;28;20031;-83
2021/08/19 07:41:47;;;;;;;23.65;17.60;;;18.10;99.90;;;;;;5020754;28;20014;-83
2021/08/19 07:44:13;;;;;;;26.00;17.40;;;18.20;99.90;;;;;;5029016;28;20036;-83
2021/08/19 07:46:40;;;;;;;22.40;16.00;;;18.20;99.90;;;;;;5022147;28;20021;-81
2021/08/19 07:49:06;;;;;;;24.83;18.08;;;18.20;99.90;;;;;;5026967;28;20033;-81
2021/08/19 07:51:34;;;;;;;24.35;17.35;;;18.10;99.90;;;;;;5074978;28;20051;-81
2021/08/19 07:54:00;;;;;;;23.83;17.42;;;18.20;99.90;;;;;;5056719;28;20110;-83
2021/08/19 07:56:25;;;;;;;22.85;17.92;;;18.20;99.90;;;;;;5056671;28;20359;-82
2021/08/19 07:58:52;;;;;;;21.83;17.88;;;18.20;99.90;;;;;;5056623;28;20024;-82
2021/08/19 08:01:19;;;;;;;28.05;17.52;;;18.20;99.90;;;;;;5040465;28;20032;-82
2021/08/19 08:03:45;;;;;;;25.27;18.35;;;18.20;99.90;;;;;;5056636;28;20373;-82
2021/08/19 08:06:14;;;;;;;27.67;18.25;;;18.20;99.90;;;;;;5039473;28;20494;-81
2021/08/19 08:08:40;;;;;;;23.67;17.52;;;18.20;99.90;;;;;;5027120;28;20493;-82
2021/08/19 08:11:07;;;;;;;21.15;16.40;;;18.20;99.90;;;;;;5055493;28;20402;-82
2021/08/19 08:16:55;;;;;;;26.45;17.23;;;18.20;99.90;;;;;;5071672;28;20026;-82
2021/08/19 08:19:22;;;;;;;22.98;17.85;;;18.20;99.90;;;;;;5036502;28;20089;-82
2021/08/19 08:21:48;;;;;;;19.60;15.80;;;18.30;99.90;;;;;;5068984;28;20027;-82
2021/08/19 08:24:13;;;;;;;23.95;17.60;;;18.20;99.90;;;;;;5046438;28;20093;-82
2021/08/19 08:26:41;;;;;;;21.40;15.52;;;18.30;99.90;;;;;;5069188;28;20035;-82
2021/08/19 08:29:07;;;;;;;24.77;17.05;;;18.30;99.90;;;;;;5036457;28;20423;-82
2021/08/19 08:31:35;;;;;;;22.40;16.38;;;18.30;99.90;;;;;;5030305;28;20422;-82
2021/08/19 08:34:02;;;;;;;21.92;15.65;;;18.30;99.90;;;;;;5022116;28;20171;-82
2021/08/19 08:36:28;;;;;;;27.08;17.75;;;18.30;99.90;;;;;;5065020;28;20102;-82
2021/08/19 08:38:55;;;;;;;24.15;16.80;;;18.30;99.90;;;;;;5037168;28;20060;-82
2021/08/19 08:41:21;;;;;;;27.83;17.42;;;18.30;99.90;;;;;;5036585;28;20029;-82
2021/08/19 08:43:47;;;;;;;22.75;16.85;;;18.30;99.90;;;;;;5043417;28;20033;-82
2021/08/19 08:46:15;;;;;;;21.27;15.82;;;18.30;99.90;;;;;;5033677;28;20039;-82
2021/08/19 08:48:43;;;;;;;21.92;16.15;;;18.30;99.90;;;;;;5031157;28;20401;-83
2021/08/19 08:51:13;;;;;;;22.20;16.23;;;18.20;99.90;;;;;;5036072;28;20494;-83
2021/08/19 08:53:40;;;;;;;23.75;17.02;;;18.30;99.90;;;;;;5036130;28;20029;-82
2021/08/19 08:56:06;;;;;;;22.10;15.98;;;18.30;99.90;;;;;;5035819;28;20060;-82
2021/08/19 08:58:32;;;;;;;20.77;14.93;;;18.30;99.90;;;;;;5019753;28;20053;-82
2021/08/19 09:00:59;;;;;;;23.40;15.20;;;18.30;99.90;;;;;;5000785;28;20470;-83
2021/08/19 09:03:26;;;;;;;22.17;15.93;;;18.30;99.90;;;;;;5020290;28;20021;-83
2021/08/19 09:05:53;;;;;;;22.20;15.85;;;18.30;99.90;;;;;;5037655;28;20094;-83
2021/08/19 09:08:27;;;;;;;19.20;15.02;;;18.30;99.90;;;;;;5038064;28;20029;-83
2021/08/19 09:10:58;;;;;;;21.60;15.98;;;18.30;99.90;;;;;;5037759;28;20023;-82
2021/08/19 09:13:26;;;;;;;;;;;18.30;99.90;;;;;;5037158;28;20025;-83
2021/08/19 09:15:53;;;;;;;19.35;14.93;;;18.30;99.90;;;;;;5029019;28;19905;-82
2021/08/19 09:18:34;;;;;;;18.52;14.73;;;18.30;99.90;;;;;;5020077;28;20105;-83
2021/08/19 09:21:01;;;;;;;19.10;14.80;;;18.30;99.90;;;;;;5036369;28;20466;-82
2021/08/19 09:23:27;;;;;;;19.70;16.23;;;18.30;99.90;;;;;;5037291;28;20029;-82
2021/08/19 09:25:53;;;;;;;17.42;15.23;;;18.30;99.90;;;;;;5037361;28;20021;-82
2021/08/19 09:28:25;;;;;;;20.35;15.77;;;18.30;99.90;;;;;;5035836;28;20029;-83
2021/08/19 09:31:03;;;;;;;21.23;15.48;;;18.30;99.90;;;;;;5023887;28;20021;-83
2021/08/19 09:33:35;;;;;;;20.75;14.75;;;18.30;99.90;;;;;;5036465;28;20025;-82
2021/08/19 09:36:06;;;;;;;16.67;13.60;;;18.30;99.90;;;;;;5036001;28;20025;-83
2021/08/19 09:38:44;;;;;;;20.50;14.98;;;18.30;99.90;;;;;;5053986;28;20029;-84
2021/08/19 09:41:21;;;;;;;19.00;14.73;;;18.30;99.90;;;;;;5020092;28;20029;-84
2021/08/19 09:43:52;;;;;;;17.63;13.43;;;18.30;99.90;;;;;;5054105;28;20070;-84
2021/08/19 09:46:35;;;;;;;16.30;12.23;;;18.30;99.90;;;;;;5036883;28;20067;-84
2021/08/19 09:49:02;;;;;;;16.63;12.88;;;18.30;99.90;;;;;;5035986;28;20025;-84
2021/08/19 09:51:28;;;;;;;17.48;12.90;;;18.30;99.90;;;;;;5022163;28;20044;-84
2021/08/19 09:53:58;;;;;;;15.88;12.38;;;18.40;99.90;;;;;;5049219;28;20056;-84
2021/08/19 09:56:43;;;;;;;;;;;18.40;99.90;;;;;;5058202;28;20029;-84
2021/08/19 09:59:20;;;;;;;16.67;12.82;;;18.40;99.90;;;;;;5039208;28;20388;-84
2021/08/19 10:01:52;;;;;;;17.48;13.07;;;18.40;99.90;;;;;;5046791;28;20035;-84
2021/08/19 10:04:23;;;;;;;18.63;13.65;;;18.40;99.90;;;;;;5051495;28;20154;-84
2021/08/19 10:06:50;;;;;;;18.02;12.65;;;18.40;99.90;;;;;;5036476;28;20553;-84
2021/08/19 10:09:17;;;;;;;18.90;13.32;;;18.40;99.90;;;;;;5040620;28;20068;-84
2021/08/19 10:11:48;;;;;;;16.00;12.25;;;18.40;99.90;;;;;;5029387;28;20043;-84
2021/08/19 10:14:16;;;;;;;14.90;11.10;;;18.40;99.90;;;;;;5026316;28;20025;-83
2021/08/19 10:16:44;;;;;;;12.82;10.68;;;18.40;99.90;;;;;;5037627;28;20021;-83
2021/08/19 10:19:23;;;;;;;16.58;11.13;;;18.40;99.90;;;;;;5034843;28;20029;-83
2021/08/19 10:22:06;;;;;;;14.73;10.80;;;18.40;99.90;;;;;;5037971;28;20386;-83
2021/08/19 10:24:35;;;;;;;16.85;12.35;;;18.40;99.90;;;;;;5031454;28;20109;-82
2021/08/19 10:27:18;;;;;;;15.65;12.27;;;18.40;99.90;;;;;;5049623;28;20013;-83
2021/08/19 10:30:04;;;;;;;14.10;11.10;;;18.40;99.90;;;;;;5045142;28;20589;-82
2021/08/19 10:32:37;;;;;;;16.02;12.07;;;18.40;99.90;;;;;;5035980;28;20017;-83
2021/08/19 10:35:14;;;;;;;15.85;12.30;;;18.50;99.90;;;;;;5019431;28;20022;-83
2021/08/19 10:37:46;;;;;;;15.93;11.43;;;18.40;99.90;;;;;;5044086;28;20536;-83
2021/08/19 10:42:49;;;;;;;13.75;12.35;;;18.40;99.90;;;;;;5056761;28;20029;-82
2021/08/19 10:45:27;;;;;;;14.57;11.65;;;18.50;99.90;;;;;;5055372;28;20040;-82
2021/08/19 10:47:54;;;;;;;17.60;12.30;;;18.50;99.90;;;;;;5038818;28;20489;-83
2021/08/19 10:53:00;;;;;;;16.33;12.30;;;18.50;99.90;;;;;;4269650;26;20064;-84
2021/08/19 10:55:38;;;;;;;15.38;11.80;;;18.50;99.90;;;;;;5021709;28;20107;-84
2021/08/19 10:58:25;;;;;;;17.13;13.07;;;18.60;99.90;;;;;;5034816;28;20368;-85
2021/08/19 11:00:52;;;;;;;14.20;12.63;;;18.60;99.90;;;;;;5035844;28;20017;-85
2021/08/19 11:03:38;;;;;;;14.00;11.73;;;18.60;99.90;;;;;;5037989;28;20025;-85
2021/08/19 11:06:10;;;;;;;13.38;11.93;;;18.60;99.90;;;;;;5023580;28;20033;-85
2021/08/19 11:08:38;;;;;;;13.60;12.20;;;18.60;99.90;;;;;;5037654;28;20542;-85
2021/08/19 11:11:05;;;;;;;16.05;12.25;;;18.60;99.90;;;;;;5023344;28;20160;-85
2021/08/19 11:13:35;;;;;;;14.23;11.82;;;18.60;99.90;;;;;;5034077;28;20033;-85
2021/08/19 11:16:05;;;;;;;14.10;12.60;;;18.60;99.90;;;;;;5049464;28;20021;-85
2021/08/19 11:18:33;;;;;;;15.88;13.48;;;18.60;99.90;;;;;;5037434;28;20135;-85
2021/08/19 11:21:01;;;;;;;13.90;11.75;;;18.60;99.90;;;;;;5037324;28;20100;-85
2021/08/19 11:23:33;;;;;;;15.07;13.00;;;18.60;99.90;;;;;;5035630;28;20028;-85
2021/08/19 11:26:09;;;;;;;14.50;13.05;;;18.60;99.90;;;;;;5055213;28;20063;-85
2021/08/19 11:28:36;;;;;;;14.60;12.85;;;18.60;99.90;;;;;;5055049;28;20029;-85
2021/08/19 11:31:09;;;;;;;13.13;11.75;;;18.60;99.90;;;;;;5037522;28;20040;-85
2021/08/19 11:33:35;;;;;;;14.63;12.68;;;18.60;99.90;;;;;;5048970;28;20104;-85
2021/08/19 11:39:26;;;;;;;17.73;13.68;;;18.60;99.90;;;;;;5044687;28;20036;-85
2021/08/19 11:42:00;;;;;;;14.35;12.48;;;18.60;99.90;;;;;;5001535;28;20463;-85
2021/08/19 11:44:26;;;;;;;14.15;12.20;;;18.60;99.90;;;;;;5018079;28;20053;-85
2021/08/19 11:47:00;;;;;;;13.80;11.75;;;18.60;99.90;;;;;;5011542;28;20096;-85
2021/08/19 11:49:26;;;;;;;14.52;12.18;;;18.60;99.90;;;;;;5028755;28;20397;-85
2021/08/19 11:52:07;;;;;;;15.25;11.65;;;18.60;99.90;;;;;;5017752;28;20052;-85
2021/08/19 11:54:42;;;;;;;14.68;12.10;;;18.60;99.90;;;;;;5031749;28;20022;-85
2021/08/19 11:57:07;;;;;;;12.90;11.20;;;18.60;99.90;;;;;;5035233;28;20523;-85
2021/08/19 11:59:33;;;;;;;13.32;11.52;;;18.60;99.90;;;;;;5035532;28;20108;-85
2021/08/19 12:01:59;;;;;;;14.68;12.63;;;18.60;99.90;;;;;;5020038;28;20025;-85
2021/08/19 12:04:29;;;;;;;14.70;11.63;;;18.60;99.90;;;;;;5033956;28;20402;-84
2021/08/19 12:06:56;;;;;;;13.57;11.70;;;18.60;99.90;;;;;;5017558;28;20034;-83
2021/08/19 12:09:23;;;;;;;12.52;11.23;;;18.70;99.90;;;;;;5022045;28;20363;-85
2021/08/19 12:11:49;;;;;;;12.73;10.63;;;18.70;99.60;;;;;;5030721;28;20028;-86
2021/08/19 12:14:15;;;;;;;12.13;10.57;;;18.60;99.50;;;;;;5035324;28;20061;-85
2021/08/19 12:16:49;;;;;;;12.50;10.40;;;18.70;99.70;;;;;;5017239;28;20475;-86
2021/08/19 12:19:45;;;;;;;12.75;11.38;;;18.70;99.80;;;;;;5014493;28;20026;-85
2021/08/19 12:22:11;;;;;;;13.10;10.27;;;18.70;99.60;;;;;;5025036;28;20505;-85
2021/08/19 12:24:38;;;;;;;12.73;10.50;;;18.70;99.40;;;;;;5034216;28;20056;-85
2021/08/19 12:27:10;;;;;;;13.18;11.40;;;18.70;99.60;;;;;;5033838;28;20034;-85
2021/08/19 12:29:53;;;;;;;12.10;10.27;;;18.70;99.40;;;;;;5017772;28;20116;-84
2021/08/19 12:32:34;;;;;;;12.23;10.32;;;18.70;99.40;;;;;;5033118;28;20029;-84
2021/08/19 12:35:10;;;;;;;12.95;10.63;;;18.70;99.30;;;;;;5005308;28;20033;-84
2021/08/19 12:37:39;;;;;;;12.55;9.65;;;18.70;99.30;;;;;;5032584;28;20032;-83
2021/08/19 12:40:13;;;;;;;10.80;9.32;;;18.70;99.30;;;;;;5033142;28;20065;-84
2021/08/19 12:42:41;;;;;;;12.30;9.15;;;18.70;99.20;;;;;;5034038;28;20033;-84
2021/08/19 12:45:10;;;;;;;12.35;9.18;;;18.80;99.30;;;;;;5041779;28;20132;-85
2021/08/19 12:47:39;;;;;;;13.55;10.48;;;18.70;99.20;;;;;;5035165;28;20033;-85